Time;durP1;ratioP1;P1;durP2;ratioP2;P2;SDS_P1;SDS_P2;PMS_P1;PMS_P2;Temp;Humidity;BMP_temperature;BMP_pressure;BME280_temperature;BME280_humidity;BME280_pressure;Samples;Min_cycle;Max_cycle;Signal;HPM_P1;HPM_P2
2022/11/15 00:00:00;;;;;;;2.7;2.5;;;;;;;8.3;100.0;100620;;;;
2022/11/15 00:01:00;;;;;;;2.7;2.5;;;;;;;8.3;100.0;100630;;;;
2022/11/15 00:02:00;;;;;;;2.7;2.5;;;;;;;8.3;100.0;100630;;;;
2022/11/15 00:03:00;;;;;;;2.7;2.5;;;;;;;8.3;100.0;100620;;;;
2022/11/15 00:04:00;;;;;;;2.7;2.5;;;;;;;8.3;100.0;100620;;;;
2022/11/15 00:05:00;;;;;;;1.8;1.8;;;;;;;8.4;100.0;100620;;;;
2022/11/15 00:06:02;;;;;;;1.8;1.8;;;;;;;8.4;100.0;100620;;;;
2022/11/15 00:07:00;;;;;;;1.8;1.8;;;;;;;8.3;100.0;100610;;;;
2022/11/15 00:08:00;;;;;;;1.8;1.8;;;;;;;8.3;100.0;100610;;;;
2022/11/15 00:09:00;;;;;;;1.8;1.8;;;;;;;8.4;100.0;100610;;;;
2022/11/15 00:10:00;;;;;;;1.8;1.8;;;;;;;8.4;100.0;100610;;;;
2022/11/15 00:11:01;;;;;;;1.8;1.8;;;;;;;8.5;100.0;100610;;;;
2022/11/15 00:12:00;;;;;;;1.8;1.8;;;;;;;8.5;100.0;100610;;;;
2022/11/15 00:13:00;;;;;;;1.8;1.8;;;;;;;8.5;100.0;100610;;;;
2022/11/15 00:14:02;;;;;;;1.8;1.8;;;;;;;8.5;100.0;100610;;;;
2022/11/15 00:15:00;;;;;;;1.8;1.8;;;;;;;8.6;100.0;100610;;;;
2022/11/15 00:16:00;;;;;;;1.8;1.8;;;;;;;8.6;100.0;100610;;;;
2022/11/15 00:17:00;;;;;;;1.8;1.8;;;;;;;8.7;100.0;100610;;;;
2022/11/15 00:18:00;;;;;;;1.8;1.8;;;;;;;8.7;100.0;100610;;;;
2022/11/15 00:19:00;;;;;;;1.8;1.8;;;;;;;8.5;100.0;100620;;;;
2022/11/15 00:20:00;;;;;;;1.8;1.8;;;;;;;8.5;100.0;100620;;;;
2022/11/15 00:21:04;;;;;;;1.8;1.8;;;;;;;8.6;100.0;100610;;;;
2022/11/15 00:22:00;;;;;;;1.8;1.8;;;;;;;8.6;100.0;100610;;;;
2022/11/15 00:23:00;;;;;;;1.8;1.8;;;;;;;8.5;100.0;100610;;;;
2022/11/15 00:24:00;;;;;;;1.8;1.8;;;;;;;8.5;100.0;100610;;;;
2022/11/15 00:25:00;;;;;;;1.6;1.5;;;;;;;8.6;100.0;100610;;;;
2022/11/15 00:26:00;;;;;;;1.6;1.5;;;;;;;8.6;100.0;100610;;;;
2022/11/15 00:27:00;;;;;;;1.6;1.5;;;;;;;8.6;100.0;100620;;;;
2022/11/15 00:28:00;;;;;;;1.6;1.5;;;;;;;8.6;100.0;100620;;;;
2022/11/15 00:29:00;;;;;;;1.6;1.5;;;;;;;8.6;100.0;100610;;;;
2022/11/15 00:30:00;;;;;;;1.6;1.5;;;;;;;8.6;100.0;100610;;;;
2022/11/15 00:31:02;;;;;;;1.6;1.5;;;;;;;8.7;100.0;100620;;;;
2022/11/15 00:32:00;;;;;;;1.6;1.5;;;;;;;8.7;100.0;100620;;;;
2022/11/15 00:33:02;;;;;;;1.6;1.5;;;;;;;8.7;100.0;100610;;;;
2022/11/15 00:34:00;;;;;;;1.6;1.5;;;;;;;8.7;100.0;100610;;;;
2022/11/15 00:35:00;;;;;;;1.6;1.5;;;;;;;8.6;100.0;100610;;;;
2022/11/15 00:36:01;;;;;;;1.6;1.5;;;;;;;8.6;100.0;100610;;;;
2022/11/15 00:37:00;;;;;;;1.6;1.5;;;;;;;8.8;100.0;100610;;;;
2022/11/15 00:38:00;;;;;;;1.6;1.5;;;;;;;8.8;100.0;100610;;;;
2022/11/15 00:39:00;;;;;;;1.6;1.5;;;;;;;8.7;100.0;100600;;;;
2022/11/15 00:40:00;;;;;;;1.6;1.5;;;;;;;8.7;100.0;100600;;;;
2022/11/15 00:41:07;;;;;;;1.6;1.5;;;;;;;8.9;100.0;100600;;;;
2022/11/15 00:42:00;;;;;;;1.6;1.5;;;;;;;8.9;100.0;100600;;;;
2022/11/15 00:43:00;;;;;;;1.6;1.5;;;;;;;8.9;100.0;100610;;;;
2022/11/15 00:44:00;;;;;;;1.6;1.5;;;;;;;8.9;100.0;100610;;;;
2022/11/15 00:45:00;;;;;;;1.5;1.5;;;;;;;8.9;100.0;100610;;;;
2022/11/15 00:46:00;;;;;;;1.5;1.5;;;;;;;8.9;100.0;100610;;;;
2022/11/15 00:47:00;;;;;;;1.5;1.5;;;;;;;8.9;100.0;100600;;;;
2022/11/15 00:48:00;;;;;;;1.5;1.5;;;;;;;8.9;100.0;100600;;;;
2022/11/15 00:49:00;;;;;;;1.5;1.5;;;;;;;8.9;100.0;100600;;;;
2022/11/15 00:50:00;;;;;;;1.5;1.5;;;;;;;8.9;100.0;100600;;;;
2022/11/15 00:51:00;;;;;;;1.5;1.5;;;;;;;8.9;100.0;100600;;;;
2022/11/15 00:52:00;;;;;;;1.5;1.5;;;;;;;8.9;100.0;100600;;;;
2022/11/15 00:53:00;;;;;;;1.5;1.5;;;;;;;8.9;100.0;100600;;;;
2022/11/15 00:54:00;;;;;;;1.5;1.5;;;;;;;8.9;100.0;100600;;;;
2022/11/15 00:55:00;;;;;;;1.5;1.5;;;;;;;9.0;100.0;100590;;;;
2022/11/15 00:56:00;;;;;;;1.5;1.5;;;;;;;9.0;100.0;100590;;;;
2022/11/15 00:57:00;;;;;;;1.5;1.5;;;;;;;9.1;100.0;100590;;;;
2022/11/15 00:58:00;;;;;;;1.5;1.5;;;;;;;9.1;100.0;100590;;;;
2022/11/15 00:59:00;;;;;;;1.5;1.5;;;;;;;9.1;100.0;100590;;;;
2022/11/15 01:00:00;;;;;;;1.5;1.5;;;;;;;9.1;100.0;100590;;;;
2022/11/15 01:01:08;;;;;;;1.5;1.5;;;;;;;9.2;100.0;100590;;;;
2022/11/15 01:02:00;;;;;;;1.5;1.5;;;;;;;9.2;100.0;100590;;;;
2022/11/15 01:03:00;;;;;;;1.5;1.5;;;;;;;9.1;100.0;100590;;;;
2022/11/15 01:04:01;;;;;;;1.2;1.2;;;;;;;9.1;100.0;100590;;;;
2022/11/15 01:05:00;;;;;;;1.2;1.2;;;;;;;9.3;100.0;100590;;;;
2022/11/15 01:06:00;;;;;;;1.2;1.2;;;;;;;9.3;100.0;100590;;;;
2022/11/15 01:07:00;;;;;;;1.2;1.2;;;;;;;9.2;100.0;100590;;;;
2022/11/15 01:08:00;;;;;;;1.2;1.2;;;;;;;9.2;100.0;100590;;;;
2022/11/15 01:09:00;;;;;;;1.2;1.2;;;;;;;9.4;100.0;100580;;;;
2022/11/15 01:10:00;;;;;;;1.2;1.2;;;;;;;9.4;100.0;100580;;;;
2022/11/15 01:11:01;;;;;;;1.2;1.2;;;;;;;9.5;100.0;100580;;;;
2022/11/15 01:12:00;;;;;;;1.2;1.2;;;;;;;9.5;100.0;100580;;;;
2022/11/15 01:13:00;;;;;;;1.2;1.2;;;;;;;9.4;100.0;100580;;;;
2022/11/15 01:14:00;;;;;;;1.2;1.2;;;;;;;9.4;100.0;100580;;;;
2022/11/15 01:15:00;;;;;;;1.2;1.2;;;;;;;9.5;100.0;100580;;;;
2022/11/15 01:16:08;;;;;;;1.2;1.2;;;;;;;9.5;100.0;100580;;;;
2022/11/15 01:17:00;;;;;;;1.2;1.2;;;;;;;9.6;100.0;100580;;;;
2022/11/15 01:18:00;;;;;;;1.2;1.2;;;;;;;9.6;100.0;100580;;;;
2022/11/15 01:19:00;;;;;;;1.2;1.2;;;;;;;9.6;100.0;100580;;;;
2022/11/15 01:20:00;;;;;;;1.2;1.2;;;;;;;9.6;100.0;100580;;;;
2022/11/15 01:21:04;;;;;;;1.2;1.2;;;;;;;9.6;100.0;100580;;;;
2022/11/15 01:22:00;;;;;;;1.2;1.2;;;;;;;9.6;100.0;100580;;;;
2022/11/15 01:23:00;;;;;;;1.2;1.2;;;;;;;9.6;100.0;100580;;;;
2022/11/15 01:24:00;;;;;;;1.0;1.0;;;;;;;9.6;100.0;100580;;;;
2022/11/15 01:25:00;;;;;;;1.0;1.0;;;;;;;9.6;100.0;100570;;;;
2022/11/15 01:26:00;;;;;;;1.0;1.0;;;;;;;9.6;100.0;100570;;;;
2022/11/15 01:27:00;;;;;;;1.0;1.0;;;;;;;9.6;100.0;100570;;;;
2022/11/15 01:28:00;;;;;;;1.0;1.0;;;;;;;9.6;100.0;100570;;;;
2022/11/15 01:29:00;;;;;;;1.0;1.0;;;;;;;9.7;100.0;100570;;;;
2022/11/15 01:30:00;;;;;;;1.0;1.0;;;;;;;9.7;100.0;100570;;;;
2022/11/15 01:31:02;;;;;;;1.0;1.0;;;;;;;9.8;100.0;100560;;;;
2022/11/15 01:32:00;;;;;;;1.0;1.0;;;;;;;9.8;100.0;100560;;;;
2022/11/15 01:33:00;;;;;;;1.0;1.0;;;;;;;9.9;100.0;100560;;;;
2022/11/15 01:34:00;;;;;;;1.0;1.0;;;;;;;9.9;100.0;100560;;;;
2022/11/15 01:35:00;;;;;;;1.0;1.0;;;;;;;9.8;100.0;100560;;;;
2022/11/15 01:36:03;;;;;;;1.0;1.0;;;;;;;9.8;100.0;100560;;;;
2022/11/15 01:37:00;;;;;;;1.0;1.0;;;;;;;9.8;100.0;100560;;;;
2022/11/15 01:38:00;;;;;;;1.0;1.0;;;;;;;9.8;100.0;100560;;;;
2022/11/15 01:39:00;;;;;;;1.0;1.0;;;;;;;9.7;100.0;100560;;;;
2022/11/15 01:40:00;;;;;;;1.0;1.0;;;;;;;9.7;100.0;100560;;;;
2022/11/15 01:41:00;;;;;;;1.0;1.0;;;;;;;9.8;100.0;100550;;;;
2022/11/15 01:42:00;;;;;;;1.0;1.0;;;;;;;9.8;100.0;100550;;;;
2022/11/15 01:43:10;;;;;;;1.0;1.0;;;;;;;9.7;100.0;100550;;;;
2022/11/15 01:44:10;;;;;;;1.3;1.3;;;;;;;9.7;100.0;100550;;;;
2022/11/15 01:45:00;;;;;;;1.3;1.3;;;;;;;9.8;100.0;100550;;;;
2022/11/15 01:46:03;;;;;;;1.3;1.3;;;;;;;9.8;100.0;100550;;;;
2022/11/15 01:47:02;;;;;;;1.3;1.3;;;;;;;9.8;100.0;100550;;;;
2022/11/15 01:48:00;;;;;;;1.3;1.3;;;;;;;9.8;100.0;100550;;;;
2022/11/15 01:49:03;;;;;;;1.3;1.3;;;;;;;9.9;100.0;100550;;;;
2022/11/15 01:50:04;;;;;;;1.3;1.3;;;;;;;9.9;100.0;100550;;;;
2022/11/15 01:51:02;;;;;;;1.3;1.3;;;;;;;9.8;100.0;100550;;;;
2022/11/15 01:52:01;;;;;;;1.3;1.3;;;;;;;9.8;100.0;100550;;;;
2022/11/15 01:53:00;;;;;;;1.3;1.3;;;;;;;9.8;100.0;100550;;;;
2022/11/15 01:54:04;;;;;;;1.3;1.3;;;;;;;9.8;100.0;100550;;;;
2022/11/15 01:55:09;;;;;;;1.3;1.3;;;;;;;9.8;100.0;100550;;;;
2022/11/15 01:56:02;;;;;;;1.3;1.3;;;;;;;9.8;100.0;100550;;;;
2022/11/15 01:57:03;;;;;;;1.3;1.3;;;;;;;9.8;100.0;100550;;;;
2022/11/15 01:58:01;;;;;;;1.3;1.3;;;;;;;9.8;100.0;100550;;;;
2022/11/15 01:59:02;;;;;;;1.3;1.3;;;;;;;9.9;100.0;100550;;;;
2022/11/15 02:00:01;;;;;;;1.3;1.3;;;;;;;9.9;100.0;100550;;;;
2022/11/15 02:01:00;;;;;;;1.3;1.3;;;;;;;9.8;100.0;100550;;;;
2022/11/15 02:02:00;;;;;;;1.3;1.3;;;;;;;9.8;100.0;100550;;;;
2022/11/15 02:03:00;;;;;;;1.3;1.3;;;;;;;9.9;100.0;100560;;;;
2022/11/15 02:04:05;;;;;;;1.2;1.2;;;;;;;9.9;100.0;100560;;;;
2022/11/15 02:05:00;;;;;;;1.2;1.2;;;;;;;9.8;100.0;100550;;;;
2022/11/15 02:06:00;;;;;;;1.2;1.2;;;;;;;9.8;100.0;100550;;;;
2022/11/15 02:07:01;;;;;;;1.2;1.2;;;;;;;9.8;100.0;100550;;;;
2022/11/15 02:08:00;;;;;;;1.2;1.2;;;;;;;9.8;100.0;100550;;;;
2022/11/15 02:09:00;;;;;;;1.2;1.2;;;;;;;9.9;100.0;100550;;;;
2022/11/15 02:10:04;;;;;;;1.2;1.2;;;;;;;9.9;100.0;100550;;;;
2022/11/15 02:11:00;;;;;;;1.2;1.2;;;;;;;9.9;100.0;100550;;;;
2022/11/15 02:12:00;;;;;;;1.2;1.2;;;;;;;9.9;100.0;100550;;;;
2022/11/15 02:13:01;;;;;;;1.2;1.2;;;;;;;9.8;100.0;100550;;;;
2022/11/15 02:14:01;;;;;;;1.2;1.2;;;;;;;9.8;100.0;100550;;;;
2022/11/15 02:15:01;;;;;;;1.2;1.2;;;;;;;9.9;100.0;100550;;;;
2022/11/15 02:16:10;;;;;;;1.2;1.2;;;;;;;9.9;100.0;100550;;;;
2022/11/15 02:17:01;;;;;;;1.2;1.2;;;;;;;9.9;100.0;100550;;;;
2022/11/15 02:18:08;;;;;;;1.2;1.2;;;;;;;9.9;100.0;100550;;;;
2022/11/15 02:19:05;;;;;;;1.2;1.2;;;;;;;10.0;100.0;100540;;;;
2022/11/15 02:20:10;;;;;;;1.2;1.2;;;;;;;10.0;100.0;100540;;;;
2022/11/15 02:21:10;;;;;;;1.2;1.2;;;;;;;10.0;100.0;100530;;;;
2022/11/15 02:22:10;;;;;;;1.2;1.2;;;;;;;10.0;100.0;100530;;;;
2022/11/15 02:23:10;;;;;;;1.2;1.2;;;;;;;9.9;100.0;100530;;;;
2022/11/15 02:24:10;;;;;;;0.9;0.9;;;;;;;9.9;100.0;100530;;;;
2022/11/15 02:25:10;;;;;;;0.9;0.9;;;;;;;10.0;100.0;100520;;;;
2022/11/15 02:26:07;;;;;;;0.9;0.9;;;;;;;10.0;100.0;100520;;;;
2022/11/15 02:27:10;;;;;;;0.9;0.9;;;;;;;10.0;100.0;100530;;;;
2022/11/15 02:28:10;;;;;;;0.9;0.9;;;;;;;10.0;100.0;100530;;;;
2022/11/15 02:29:05;;;;;;;0.9;0.9;;;;;;;10.1;100.0;100530;;;;
2022/11/15 02:30:10;;;;;;;0.9;0.9;;;;;;;10.1;100.0;100530;;;;
2022/11/15 02:31:04;;;;;;;0.9;0.9;;;;;;;10.1;100.0;100520;;;;
2022/11/15 02:32:04;;;;;;;0.9;0.9;;;;;;;10.1;100.0;100520;;;;
2022/11/15 02:33:10;;;;;;;0.9;0.9;;;;;;;10.1;100.0;100520;;;;
2022/11/15 02:34:00;;;;;;;0.9;0.9;;;;;;;10.1;100.0;100520;;;;
2022/11/15 02:35:04;;;;;;;0.9;0.9;;;;;;;10.2;100.0;100520;;;;
2022/11/15 02:36:05;;;;;;;0.9;0.9;;;;;;;10.2;100.0;100520;;;;
2022/11/15 02:37:07;;;;;;;0.9;0.9;;;;;;;10.2;100.0;100520;;;;
2022/11/15 02:38:06;;;;;;;0.9;0.9;;;;;;;10.2;100.0;100520;;;;
2022/11/15 02:39:05;;;;;;;0.9;0.9;;;;;;;10.1;100.0;100520;;;;
2022/11/15 02:40:01;;;;;;;0.9;0.9;;;;;;;10.1;100.0;100520;;;;
2022/11/15 02:41:03;;;;;;;0.9;0.9;;;;;;;10.2;100.0;100520;;;;
2022/11/15 02:42:03;;;;;;;0.9;0.9;;;;;;;10.2;100.0;100520;;;;
2022/11/15 02:44:03;;;;;;;2.4;1.4;;;;;;;10.1;100.0;100520;;;;
2022/11/15 02:45:03;;;;;;;2.4;1.4;;;;;;;10.2;100.0;100520;;;;
2022/11/15 02:46:05;;;;;;;2.4;1.4;;;;;;;10.2;100.0;100520;;;;
2022/11/15 02:48:00;;;;;;;2.4;1.4;;;;;;;10.2;100.0;100520;;;;
2022/11/15 02:49:00;;;;;;;2.4;1.4;;;;;;;10.3;100.0;100520;;;;
2022/11/15 02:50:04;;;;;;;2.4;1.4;;;;;;;10.3;100.0;100520;;;;
2022/11/15 02:51:00;;;;;;;2.4;1.4;;;;;;;10.3;100.0;100510;;;;
2022/11/15 02:52:00;;;;;;;2.4;1.4;;;;;;;10.3;100.0;100510;;;;
2022/11/15 02:53:00;;;;;;;2.4;1.4;;;;;;;10.1;100.0;100510;;;;
2022/11/15 02:54:00;;;;;;;2.4;1.4;;;;;;;10.1;100.0;100510;;;;
2022/11/15 02:55:00;;;;;;;2.4;1.4;;;;;;;10.3;100.0;100520;;;;
2022/11/15 02:56:00;;;;;;;2.4;1.4;;;;;;;10.3;100.0;100520;;;;
2022/11/15 02:57:03;;;;;;;2.4;1.4;;;;;;;10.3;100.0;100510;;;;
2022/11/15 02:58:10;;;;;;;2.4;1.4;;;;;;;10.3;100.0;100510;;;;
2022/11/15 02:59:10;;;;;;;2.4;1.4;;;;;;;10.3;100.0;100510;;;;
2022/11/15 03:00:09;;;;;;;2.4;1.4;;;;;;;10.3;100.0;100510;;;;
2022/11/15 03:01:04;;;;;;;2.4;1.4;;;;;;;10.4;100.0;100510;;;;
2022/11/15 03:02:03;;;;;;;2.4;1.4;;;;;;;10.4;100.0;100510;;;;
2022/11/15 03:03:00;;;;;;;2.4;1.4;;;;;;;10.3;100.0;100510;;;;
2022/11/15 03:04:10;;;;;;;0.9;0.9;;;;;;;10.3;100.0;100510;;;;
2022/11/15 03:05:00;;;;;;;0.9;0.9;;;;;;;10.4;100.0;100510;;;;
2022/11/15 03:06:10;;;;;;;0.9;0.9;;;;;;;10.4;100.0;100510;;;;
2022/11/15 03:07:00;;;;;;;0.9;0.9;;;;;;;10.4;100.0;100500;;;;
2022/11/15 03:08:10;;;;;;;0.9;0.9;;;;;;;10.4;100.0;100500;;;;
2022/11/15 03:09:00;;;;;;;0.9;0.9;;;;;;;10.4;100.0;100510;;;;
2022/11/15 03:10:10;;;;;;;0.9;0.9;;;;;;;10.4;100.0;100510;;;;
2022/11/15 03:11:07;;;;;;;0.9;0.9;;;;;;;10.4;100.0;100500;;;;
2022/11/15 03:12:05;;;;;;;0.9;0.9;;;;;;;10.4;100.0;100500;;;;
2022/11/15 03:13:09;;;;;;;0.9;0.9;;;;;;;10.6;100.0;100500;;;;
2022/11/15 03:14:10;;;;;;;0.9;0.9;;;;;;;10.6;100.0;100500;;;;
2022/11/15 03:15:04;;;;;;;0.9;0.9;;;;;;;10.6;100.0;100500;;;;
2022/11/15 03:16:06;;;;;;;0.9;0.9;;;;;;;10.6;100.0;100500;;;;
2022/11/15 03:17:00;;;;;;;0.9;0.9;;;;;;;10.6;100.0;100500;;;;
2022/11/15 03:18:04;;;;;;;0.9;0.9;;;;;;;10.6;100.0;100500;;;;
2022/11/15 03:19:05;;;;;;;0.9;0.9;;;;;;;10.5;100.0;100490;;;;
2022/11/15 03:20:02;;;;;;;0.9;0.9;;;;;;;10.5;100.0;100490;;;;
2022/11/15 03:21:02;;;;;;;0.9;0.9;;;;;;;10.7;100.0;100490;;;;
2022/11/15 03:22:02;;;;;;;0.9;0.9;;;;;;;10.7;100.0;100490;;;;
2022/11/15 03:23:02;;;;;;;0.9;0.9;;;;;;;10.6;100.0;100500;;;;
2022/11/15 03:24:03;;;;;;;1.4;1.4;;;;;;;10.6;100.0;100500;;;;
2022/11/15 03:25:04;;;;;;;1.4;1.4;;;;;;;10.6;100.0;100500;;;;
2022/11/15 03:26:00;;;;;;;1.4;1.4;;;;;;;10.6;100.0;100500;;;;
2022/11/15 03:27:01;;;;;;;1.4;1.4;;;;;;;10.6;100.0;100500;;;;
2022/11/15 03:28:02;;;;;;;1.4;1.4;;;;;;;10.6;100.0;100500;;;;
2022/11/15 03:29:04;;;;;;;1.4;1.4;;;;;;;10.7;100.0;100500;;;;
2022/11/15 03:30:02;;;;;;;1.4;1.4;;;;;;;10.7;100.0;100500;;;;
2022/11/15 03:31:01;;;;;;;1.4;1.4;;;;;;;10.7;100.0;100500;;;;
2022/11/15 03:32:03;;;;;;;1.4;1.4;;;;;;;10.7;100.0;100500;;;;
2022/11/15 03:33:02;;;;;;;1.4;1.4;;;;;;;10.7;100.0;100500;;;;
2022/11/15 03:34:02;;;;;;;1.4;1.4;;;;;;;10.7;100.0;100500;;;;
2022/11/15 03:35:10;;;;;;;1.4;1.4;;;;;;;10.7;100.0;100500;;;;
2022/11/15 03:36:00;;;;;;;1.4;1.4;;;;;;;10.7;100.0;100500;;;;
2022/11/15 03:37:01;;;;;;;1.4;1.4;;;;;;;10.8;100.0;100500;;;;
2022/11/15 03:38:10;;;;;;;1.4;1.4;;;;;;;10.8;100.0;100500;;;;
2022/11/15 03:39:05;;;;;;;1.4;1.4;;;;;;;10.8;100.0;100500;;;;
2022/11/15 03:40:00;;;;;;;1.4;1.4;;;;;;;10.8;100.0;100500;;;;
2022/11/15 03:41:01;;;;;;;1.4;1.4;;;;;;;10.8;100.0;100500;;;;
2022/11/15 03:42:01;;;;;;;1.4;1.4;;;;;;;10.8;100.0;100500;;;;
2022/11/15 03:43:07;;;;;;;1.4;1.4;;;;;;;11.0;100.0;100510;;;;
2022/11/15 03:44:05;;;;;;;0.9;0.9;;;;;;;11.0;100.0;100510;;;;
2022/11/15 03:45:10;;;;;;;0.9;0.9;;;;;;;11.0;100.0;100510;;;;
2022/11/15 03:46:03;;;;;;;0.9;0.9;;;;;;;11.0;100.0;100510;;;;
2022/11/15 03:47:09;;;;;;;0.9;0.9;;;;;;;10.9;100.0;100510;;;;
2022/11/15 03:48:10;;;;;;;0.9;0.9;;;;;;;10.9;100.0;100510;;;;
2022/11/15 03:49:08;;;;;;;0.9;0.9;;;;;;;10.8;100.0;100510;;;;
2022/11/15 03:50:04;;;;;;;0.9;0.9;;;;;;;10.8;100.0;100510;;;;
2022/11/15 03:51:00;;;;;;;0.9;0.9;;;;;;;10.8;100.0;100510;;;;
2022/11/15 03:52:02;;;;;;;0.9;0.9;;;;;;;10.8;100.0;100510;;;;
2022/11/15 03:53:00;;;;;;;0.9;0.9;;;;;;;10.7;100.0;100510;;;;
2022/11/15 03:54:02;;;;;;;0.9;0.9;;;;;;;10.7;100.0;100510;;;;
2022/11/15 03:55:01;;;;;;;0.9;0.9;;;;;;;10.9;100.0;100510;;;;
2022/11/15 03:56:00;;;;;;;0.9;0.9;;;;;;;10.9;100.0;100510;;;;
2022/11/15 03:57:00;;;;;;;0.9;0.9;;;;;;;11.0;100.0;100500;;;;
2022/11/15 03:58:00;;;;;;;0.9;0.9;;;;;;;11.0;100.0;100500;;;;
2022/11/15 03:59:00;;;;;;;0.9;0.9;;;;;;;10.9;100.0;100500;;;;
2022/11/15 04:00:00;;;;;;;0.9;0.9;;;;;;;10.9;100.0;100500;;;;
2022/11/15 04:01:00;;;;;;;0.9;0.9;;;;;;;10.9;100.0;100510;;;;
2022/11/15 04:02:00;;;;;;;0.9;0.9;;;;;;;10.9;100.0;100510;;;;
2022/11/15 04:03:00;;;;;;;0.9;0.9;;;;;;;11.0;100.0;100510;;;;
2022/11/15 04:04:00;;;;;;;1.3;1.1;;;;;;;11.0;100.0;100510;;;;
2022/11/15 04:05:00;;;;;;;1.3;1.1;;;;;;;11.1;100.0;100500;;;;
2022/11/15 04:06:00;;;;;;;1.3;1.1;;;;;;;11.1;100.0;100500;;;;
2022/11/15 04:07:00;;;;;;;1.3;1.1;;;;;;;11.0;100.0;100500;;;;
2022/11/15 04:08:00;;;;;;;1.3;1.1;;;;;;;11.0;100.0;100500;;;;
2022/11/15 04:09:00;;;;;;;1.3;1.1;;;;;;;11.0;100.0;100500;;;;
2022/11/15 04:10:03;;;;;;;1.3;1.1;;;;;;;11.0;100.0;100500;;;;
2022/11/15 04:11:02;;;;;;;1.3;1.1;;;;;;;11.0;100.0;100500;;;;
2022/11/15 04:12:00;;;;;;;1.3;1.1;;;;;;;11.0;100.0;100500;;;;
2022/11/15 04:13:02;;;;;;;1.3;1.1;;;;;;;10.9;100.0;100500;;;;
2022/11/15 04:14:00;;;;;;;1.3;1.1;;;;;;;10.9;100.0;100500;;;;
2022/11/15 04:15:10;;;;;;;1.3;1.1;;;;;;;10.9;100.0;100500;;;;
2022/11/15 04:16:00;;;;;;;1.3;1.1;;;;;;;10.9;100.0;100500;;;;
2022/11/15 04:17:00;;;;;;;1.3;1.1;;;;;;;11.0;100.0;100500;;;;
2022/11/15 04:18:00;;;;;;;1.3;1.1;;;;;;;11.0;100.0;100500;;;;
2022/11/15 04:25:00;;;;;;;1.0;1.0;;;;;;;11.2;100.0;100500;;;;
2022/11/15 04:26:01;;;;;;;1.0;1.0;;;;;;;11.2;100.0;100500;;;;
2022/11/15 04:27:00;;;;;;;1.0;1.0;;;;;;;11.0;100.0;100500;;;;
2022/11/15 04:28:00;;;;;;;1.0;1.0;;;;;;;11.0;100.0;100500;;;;
2022/11/15 04:30:00;;;;;;;1.0;1.0;;;;;;;11.1;100.0;100500;;;;
2022/11/15 04:31:00;;;;;;;1.0;1.0;;;;;;;11.1;100.0;100500;;;;
2022/11/15 04:32:01;;;;;;;1.0;1.0;;;;;;;11.1;100.0;100500;;;;
2022/11/15 04:33:00;;;;;;;1.0;1.0;;;;;;;11.1;100.0;100500;;;;
2022/11/15 04:34:01;;;;;;;1.0;1.0;;;;;;;11.1;100.0;100500;;;;
2022/11/15 04:35:00;;;;;;;1.0;1.0;;;;;;;11.1;100.0;100500;;;;
2022/11/15 04:38:00;;;;;;;1.0;1.0;;;;;;;11.1;100.0;100500;;;;
2022/11/15 04:39:00;;;;;;;1.0;1.0;;;;;;;11.1;100.0;100500;;;;
2022/11/15 04:40:00;;;;;;;1.0;1.0;;;;;;;11.1;100.0;100500;;;;
2022/11/15 04:41:00;;;;;;;1.0;1.0;;;;;;;11.2;100.0;100500;;;;
2022/11/15 04:42:00;;;;;;;1.0;1.0;;;;;;;11.2;100.0;100500;;;;
2022/11/15 04:43:04;;;;;;;1.0;1.0;;;;;;;11.1;100.0;100500;;;;
2022/11/15 04:44:00;;;;;;;1.2;1.2;;;;;;;11.1;100.0;100500;;;;
2022/11/15 04:45:00;;;;;;;1.2;1.2;;;;;;;11.4;100.0;100500;;;;
2022/11/15 04:46:00;;;;;;;1.2;1.2;;;;;;;11.4;100.0;100500;;;;
2022/11/15 04:47:00;;;;;;;1.2;1.2;;;;;;;11.1;100.0;100500;;;;
2022/11/15 04:48:00;;;;;;;1.2;1.2;;;;;;;11.1;100.0;100500;;;;
2022/11/15 04:49:00;;;;;;;1.2;1.2;;;;;;;11.2;100.0;100500;;;;
2022/11/15 04:50:00;;;;;;;1.2;1.2;;;;;;;11.2;100.0;100500;;;;
2022/11/15 04:51:00;;;;;;;1.2;1.2;;;;;;;11.2;100.0;100500;;;;
2022/11/15 04:52:00;;;;;;;1.2;1.2;;;;;;;11.2;100.0;100500;;;;
2022/11/15 04:53:00;;;;;;;1.2;1.2;;;;;;;11.2;100.0;100500;;;;
2022/11/15 04:54:00;;;;;;;1.2;1.2;;;;;;;11.2;100.0;100500;;;;
2022/11/15 04:55:07;;;;;;;1.2;1.2;;;;;;;11.1;100.0;100500;;;;
2022/11/15 04:56:00;;;;;;;1.2;1.2;;;;;;;11.1;100.0;100500;;;;
2022/11/15 04:57:00;;;;;;;1.2;1.2;;;;;;;11.2;100.0;100500;;;;
2022/11/15 04:58:01;;;;;;;1.2;1.2;;;;;;;11.2;100.0;100500;;;;
2022/11/15 04:59:00;;;;;;;1.2;1.2;;;;;;;11.1;100.0;100510;;;;
2022/11/15 05:00:00;;;;;;;1.2;1.2;;;;;;;11.1;100.0;100510;;;;
2022/11/15 05:01:10;;;;;;;1.2;1.2;;;;;;;11.1;100.0;100510;;;;
2022/11/15 05:02:00;;;;;;;1.2;1.2;;;;;;;11.1;100.0;100510;;;;
2022/11/15 05:05:00;;;;;;;0.9;0.9;;;;;;;11.3;100.0;100500;;;;
2022/11/15 05:06:00;;;;;;;0.9;0.9;;;;;;;11.3;100.0;100500;;;;
2022/11/15 05:07:00;;;;;;;0.9;0.9;;;;;;;11.4;100.0;100500;;;;
2022/11/15 05:08:00;;;;;;;0.9;0.9;;;;;;;11.4;100.0;100500;;;;
2022/11/15 05:09:00;;;;;;;0.9;0.9;;;;;;;11.2;100.0;100490;;;;
2022/11/15 05:10:00;;;;;;;0.9;0.9;;;;;;;11.2;100.0;100490;;;;
2022/11/15 05:11:00;;;;;;;0.9;0.9;;;;;;;11.2;100.0;100500;;;;
2022/11/15 05:12:00;;;;;;;0.9;0.9;;;;;;;11.2;100.0;100500;;;;
2022/11/15 05:13:00;;;;;;;0.9;0.9;;;;;;;11.3;100.0;100500;;;;
2022/11/15 05:14:00;;;;;;;0.9;0.9;;;;;;;11.3;100.0;100500;;;;
2022/11/15 05:15:00;;;;;;;0.9;0.9;;;;;;;11.2;100.0;100490;;;;
2022/11/15 05:16:00;;;;;;;0.9;0.9;;;;;;;11.2;100.0;100490;;;;
2022/11/15 05:17:00;;;;;;;0.9;0.9;;;;;;;11.3;100.0;100490;;;;
2022/11/15 05:18:00;;;;;;;0.9;0.9;;;;;;;11.3;100.0;100490;;;;
2022/11/15 05:19:00;;;;;;;0.9;0.9;;;;;;;11.4;100.0;100500;;;;
2022/11/15 05:20:00;;;;;;;0.9;0.9;;;;;;;11.4;100.0;100500;;;;
2022/11/15 05:21:04;;;;;;;0.9;0.9;;;;;;;11.2;100.0;100500;;;;
2022/11/15 05:22:00;;;;;;;0.9;0.9;;;;;;;11.2;100.0;100500;;;;
2022/11/15 05:23:00;;;;;;;0.9;0.9;;;;;;;11.2;100.0;100490;;;;
2022/11/15 05:24:00;;;;;;;2.1;1.3;;;;;;;11.2;100.0;100490;;;;
2022/11/15 05:25:00;;;;;;;2.1;1.3;;;;;;;11.2;100.0;100490;;;;
2022/11/15 05:26:08;;;;;;;2.1;1.3;;;;;;;11.2;100.0;100490;;;;
2022/11/15 05:27:00;;;;;;;2.1;1.3;;;;;;;11.3;100.0;100490;;;;
2022/11/15 05:28:00;;;;;;;2.1;1.3;;;;;;;11.3;100.0;100490;;;;
2022/11/15 05:29:00;;;;;;;2.1;1.3;;;;;;;11.2;100.0;100490;;;;
2022/11/15 05:30:00;;;;;;;2.1;1.3;;;;;;;11.2;100.0;100490;;;;
2022/11/15 05:31:02;;;;;;;2.1;1.3;;;;;;;11.3;100.0;100490;;;;
2022/11/15 05:32:00;;;;;;;2.1;1.3;;;;;;;11.3;100.0;100490;;;;
2022/11/15 05:33:00;;;;;;;2.1;1.3;;;;;;;11.1;100.0;100490;;;;
2022/11/15 05:34:00;;;;;;;2.1;1.3;;;;;;;11.1;100.0;100490;;;;
2022/11/15 05:35:00;;;;;;;2.1;1.3;;;;;;;11.3;100.0;100490;;;;
2022/11/15 05:36:02;;;;;;;2.1;1.3;;;;;;;11.3;100.0;100490;;;;
2022/11/15 05:37:00;;;;;;;2.1;1.3;;;;;;;11.1;100.0;100490;;;;
2022/11/15 05:38:00;;;;;;;2.1;1.3;;;;;;;11.1;100.0;100490;;;;
2022/11/15 05:39:00;;;;;;;2.1;1.3;;;;;;;11.2;100.0;100490;;;;
2022/11/15 05:40:00;;;;;;;2.1;1.3;;;;;;;11.2;100.0;100490;;;;
2022/11/15 05:41:00;;;;;;;2.1;1.3;;;;;;;11.3;100.0;100480;;;;
2022/11/15 05:42:04;;;;;;;2.1;1.3;;;;;;;11.3;100.0;100480;;;;
2022/11/15 05:43:01;;;;;;;1.3;1.3;;;;;;;11.2;100.0;100490;;;;
2022/11/15 05:44:01;;;;;;;1.3;1.3;;;;;;;11.2;100.0;100490;;;;
2022/11/15 05:45:02;;;;;;;1.3;1.3;;;;;;;11.3;100.0;100480;;;;
2022/11/15 05:46:01;;;;;;;1.3;1.3;;;;;;;11.3;100.0;100480;;;;
2022/11/15 05:47:00;;;;;;;1.3;1.3;;;;;;;11.1;100.0;100490;;;;
2022/11/15 05:48:01;;;;;;;1.3;1.3;;;;;;;11.1;100.0;100490;;;;
2022/11/15 05:49:00;;;;;;;1.3;1.3;;;;;;;11.2;100.0;100490;;;;
2022/11/15 05:50:00;;;;;;;1.3;1.3;;;;;;;11.2;100.0;100490;;;;
2022/11/15 05:51:00;;;;;;;1.3;1.3;;;;;;;11.2;100.0;100480;;;;
2022/11/15 05:52:02;;;;;;;1.3;1.3;;;;;;;11.2;100.0;100480;;;;
2022/11/15 05:53:05;;;;;;;1.3;1.3;;;;;;;11.2;100.0;100480;;;;
2022/11/15 05:54:00;;;;;;;1.3;1.3;;;;;;;11.2;100.0;100480;;;;
2022/11/15 05:55:01;;;;;;;1.3;1.3;;;;;;;11.2;100.0;100480;;;;
2022/11/15 05:56:00;;;;;;;1.3;1.3;;;;;;;11.2;100.0;100480;;;;
2022/11/15 05:57:00;;;;;;;1.3;1.3;;;;;;;11.2;100.0;100490;;;;
2022/11/15 05:58:00;;;;;;;1.3;1.3;;;;;;;11.2;100.0;100490;;;;
2022/11/15 05:59:00;;;;;;;1.3;1.3;;;;;;;11.2;100.0;100490;;;;
2022/11/15 06:00:00;;;;;;;1.3;1.3;;;;;;;11.2;100.0;100490;;;;
2022/11/15 06:01:00;;;;;;;1.3;1.3;;;;;;;11.1;100.0;100490;;;;
2022/11/15 06:02:00;;;;;;;1.3;1.3;;;;;;;11.1;100.0;100490;;;;
2022/11/15 06:03:00;;;;;;;0.9;0.9;;;;;;;11.2;100.0;100500;;;;
2022/11/15 06:04:00;;;;;;;0.9;0.9;;;;;;;11.2;100.0;100500;;;;
2022/11/15 06:05:00;;;;;;;0.9;0.9;;;;;;;11.4;100.0;100500;;;;
2022/11/15 06:06:00;;;;;;;0.9;0.9;;;;;;;11.4;100.0;100500;;;;
2022/11/15 06:07:00;;;;;;;0.9;0.9;;;;;;;11.4;100.0;100500;;;;
2022/11/15 06:08:00;;;;;;;0.9;0.9;;;;;;;11.4;100.0;100500;;;;
2022/11/15 06:09:00;;;;;;;0.9;0.9;;;;;;;11.4;100.0;100490;;;;
2022/11/15 06:10:00;;;;;;;0.9;0.9;;;;;;;11.4;100.0;100490;;;;
2022/11/15 06:11:04;;;;;;;0.9;0.9;;;;;;;11.3;100.0;100500;;;;
2022/11/15 06:12:00;;;;;;;0.9;0.9;;;;;;;11.3;100.0;100500;;;;
2022/11/15 06:13:01;;;;;;;0.9;0.9;;;;;;;11.3;100.0;100500;;;;
2022/11/15 06:14:00;;;;;;;0.9;0.9;;;;;;;11.3;100.0;100500;;;;
2022/11/15 06:15:00;;;;;;;0.9;0.9;;;;;;;11.2;100.0;100490;;;;
2022/11/15 06:16:00;;;;;;;0.9;0.9;;;;;;;11.2;100.0;100490;;;;
2022/11/15 06:17:00;;;;;;;0.9;0.9;;;;;;;11.3;100.0;100490;;;;
2022/11/15 06:18:00;;;;;;;0.9;0.9;;;;;;;11.3;100.0;100490;;;;
2022/11/15 06:19:00;;;;;;;0.9;0.9;;;;;;;11.3;100.0;100490;;;;
2022/11/15 06:20:00;;;;;;;0.9;0.9;;;;;;;11.3;100.0;100490;;;;
2022/11/15 06:21:00;;;;;;;0.9;0.9;;;;;;;11.3;100.0;100490;;;;
2022/11/15 06:22:00;;;;;;;0.9;0.9;;;;;;;11.3;100.0;100490;;;;
2022/11/15 06:23:01;;;;;;;0.8;0.8;;;;;;;11.3;100.0;100490;;;;
2022/11/15 06:24:00;;;;;;;0.8;0.8;;;;;;;11.3;100.0;100490;;;;
2022/11/15 06:25:05;;;;;;;0.8;0.8;;;;;;;11.3;100.0;100490;;;;
2022/11/15 06:26:01;;;;;;;0.8;0.8;;;;;;;11.3;100.0;100490;;;;
2022/11/15 06:27:00;;;;;;;0.8;0.8;;;;;;;11.3;100.0;100490;;;;
2022/11/15 06:28:00;;;;;;;0.8;0.8;;;;;;;11.3;100.0;100490;;;;
2022/11/15 06:29:00;;;;;;;0.8;0.8;;;;;;;11.4;100.0;100500;;;;
2022/11/15 06:30:00;;;;;;;0.8;0.8;;;;;;;11.4;100.0;100500;;;;
2022/11/15 06:31:04;;;;;;;0.8;0.8;;;;;;;11.3;100.0;100500;;;;
2022/11/15 06:32:00;;;;;;;0.8;0.8;;;;;;;11.3;100.0;100500;;;;
2022/11/15 06:33:01;;;;;;;0.8;0.8;;;;;;;11.3;100.0;100510;;;;
2022/11/15 06:34:00;;;;;;;0.8;0.8;;;;;;;11.3;100.0;100510;;;;
2022/11/15 06:35:00;;;;;;;0.8;0.8;;;;;;;11.1;100.0;100510;;;;
2022/11/15 06:36:02;;;;;;;0.8;0.8;;;;;;;11.1;100.0;100510;;;;
2022/11/15 06:37:00;;;;;;;0.8;0.8;;;;;;;11.3;100.0;100510;;;;